Time;durP1;ratioP1;P1;durP2;ratioP2;P2;SDS_P1;SDS_P2;PMS_P1;PMS_P2;Temp;Humidity;BMP_temperature;BMP_pressure;BME280_temperature;BME280_humidity;BME280_pressure;Samples;Min_cycle;Max_cycle;Signal;HPM_P1;HPM_P2
2021/04/10 00:00:27;;;;;;;27.85;16.70;;;;;;;0.08;69.56;100271.67;1779924;80;21497;-61
2021/04/10 00:02:54;;;;;;;25.23;16.15;;;;;;;0.07;69.62;100270.81;1779970;80;22253;-62
2021/04/10 00:05:23;;;;;;;27.13;17.37;;;;;;;0.06;69.63;100269.09;1779779;80;21133;-61
2021/04/10 00:07:51;;;;;;;25.68;16.12;;;;;;;0.05;69.54;100262.25;1779953;80;21537;-61
2021/04/10 00:10:20;;;;;;;25.62;15.70;;;;;;;0.05;70.68;100269.07;1779889;80;21172;-61
2021/04/10 00:12:48;;;;;;;21.68;13.93;;;;;;;0.04;70.87;100272.05;1779889;80;21069;-61
2021/04/10 00:15:17;;;;;;;19.80;13.32;;;;;;;0.02;70.45;100267.74;1779807;80;22002;-60
2021/04/10 00:17:44;;;;;;;24.52;15.25;;;;;;;0.00;70.13;100277.53;1779859;79;21501;-60
2021/04/10 00:20:15;;;;;;;26.82;15.48;;;;;;;-0.02;70.32;100272.84;1779871;80;21601;-60
2021/04/10 00:22:43;;;;;;;24.60;15.88;;;;;;;-0.07;70.54;100269.36;1779973;80;21114;-60
2021/04/10 00:25:12;;;;;;;22.93;15.63;;;;;;;-0.12;71.32;100265.87;1779877;80;21105;-60
2021/04/10 00:27:42;;;;;;;28.15;17.40;;;;;;;-0.13;72.41;100264.14;1779850;80;21133;-60
2021/04/10 00:30:12;;;;;;;23.65;14.95;;;;;;;-0.13;73.11;100267.13;1779781;80;21160;-61
2021/04/10 00:32:39;;;;;;;23.00;16.87;;;;;;;-0.13;73.45;100269.67;1779895;80;21188;-61
2021/04/10 00:35:08;;;;;;;24.95;16.37;;;;;;;-0.15;73.58;100272.62;1779758;80;21061;-61
2021/04/10 00:37:36;;;;;;;29.12;15.85;;;;;;;-0.19;73.40;100269.16;1779737;80;21057;-61
2021/04/10 00:40:07;;;;;;;29.32;17.12;;;;;;;-0.21;73.77;100273.84;1779896;80;21081;-61
2021/04/10 00:42:35;;;;;;;30.15;17.65;;;;;;;-0.23;73.93;100269.12;1779766;80;21078;-61
2021/04/10 00:45:05;;;;;;;31.95;18.73;;;;;;;-0.24;74.32;100275.92;1779853;80;21238;-61
2021/04/10 00:47:32;;;;;;;29.80;17.77;;;;;;;-0.25;74.31;100269.52;1779936;80;21125;-60
2021/04/10 00:49:59;;;;;;;27.77;18.12;;;;;;;-0.25;74.33;100269.52;1779850;80;21167;-60
2021/04/10 00:52:27;;;;;;;23.80;16.23;;;;;;;-0.25;74.11;100266.53;1779946;80;21206;-61
2021/04/10 00:54:56;;;;;;;25.52;16.90;;;;;;;-0.26;74.49;100266.52;1779746;80;21094;-61
2021/04/10 00:57:24;;;;;;;26.70;16.77;;;;;;;-0.26;74.67;100267.37;1779790;80;21180;-61
2021/04/10 00:59:51;;;;;;;31.57;18.20;;;;;;;-0.26;74.48;100261.41;1754082;80;21919;-61
2021/04/10 01:02:19;;;;;;;32.05;18.65;;;;;;;-0.26;74.22;100263.95;1779846;80;21149;-61
2021/04/10 01:04:47;;;;;;;29.20;16.73;;;;;;;-0.29;73.90;100264.77;1729607;80;22276;-61
2021/04/10 01:07:16;;;;;;;29.02;16.85;;;;;;;-0.30;73.84;100269.44;1779806;80;21064;-61
2021/04/10 01:09:47;;;;;;;26.90;16.52;;;;;;;-0.30;73.83;100266.02;1779788;80;21475;-61
2021/04/10 01:13:01;;;;;;;27.20;16.62;;;;;;;-0.31;73.65;100265.58;1779866;80;21081;-61
2021/04/10 01:15:52;;;;;;;30.63;17.17;;;;;;;-0.30;73.84;100268.16;1780094;80;21060;-61
2021/04/10 01:18:44;;;;;;;24.05;15.35;;;;;;;-0.33;73.27;100261.72;1779817;80;21537;-61
2021/04/10 01:21:48;;;;;;;23.27;14.55;;;;;;;-0.34;72.98;100263.83;1779756;80;21120;-61
2021/04/10 01:25:02;;;;;;;29.70;14.87;;;;;;;-0.38;72.58;100260.78;1779775;80;21494;-61
2021/04/10 01:27:39;;;;;;;;;;;;;;;-0.40;72.43;100256.09;1782535;80;21592;-61
2021/04/10 01:30:18;;;;;;;30.55;18.57;;;;;;;-0.44;72.07;100255.18;1779992;80;20235;-61
2021/04/10 01:32:55;;;;;;;39.63;22.52;;;;;;;-0.49;71.91;100257.22;1779902;80;22270;-61
2021/04/10 01:35:29;;;;;;;37.05;19.42;;;;;;;-0.54;71.93;100257.14;1779697;80;21109;-62
2021/04/10 01:38:01;;;;;;;27.95;16.77;;;;;;;-0.58;72.00;100255.78;1751004;81;21077;-62
2021/04/10 01:40:32;;;;;;;20.75;11.38;;;;;;;-0.63;71.81;100254.45;1764383;80;21148;-60
2021/04/10 01:43:00;;;;;;;28.73;16.95;;;;;;;-0.67;71.74;100250.13;1764232;81;21137;-60
2021/04/10 01:45:29;;;;;;;36.38;20.72;;;;;;;-0.67;71.85;100259.48;1749310;81;21207;-60
2021/04/10 01:48:00;;;;;;;46.85;23.62;;;;;;;-0.68;71.99;100257.34;1764196;81;21077;-60
2021/04/10 01:50:27;;;;;;;34.73;19.67;;;;;;;-0.70;72.00;100258.59;1764245;81;21041;-60
2021/04/10 01:52:56;;;;;;;25.30;15.45;;;;;;;-0.72;72.05;100261.54;1764248;81;21069;-60
2021/04/10 01:55:24;;;;;;;28.92;17.35;;;;;;;-0.76;71.72;100261.04;1764197;81;21109;-61
2021/04/10 01:57:53;;;;;;;46.73;25.12;;;;;;;-0.80;71.64;100265.64;1749368;81;21385;-60
2021/04/10 02:00:26;;;;;;;42.70;24.32;;;;;;;-0.82;71.87;100262.66;1764227;80;21152;-60
2021/04/10 02:02:55;;;;;;;;;;;;;;;-0.85;72.12;100262.18;1766975;80;21052;-61
2021/04/10 02:05:25;;;;;;;39.18;20.55;;;;;;;-0.87;72.21;100264.26;1764263;81;20222;-61
2021/04/10 02:08:10;;;;;;;32.98;19.27;;;;;;;-0.90;72.24;100266.75;1763610;80;21180;-60
2021/04/10 02:10:38;;;;;;;31.70;19.37;;;;;;;-0.96;72.23;100264.09;1749097;81;21140;-60
2021/04/10 02:13:15;;;;;;;40.30;21.57;;;;;;;-0.99;72.33;100268.72;1763680;80;21093;-61
2021/04/10 02:15:51;;;;;;;43.25;23.38;;;;;;;-0.99;72.47;100270.41;1764202;80;21089;-61
2021/04/10 02:18:21;;;;;;;34.85;15.85;;;;;;;-1.02;72.52;100264.00;1764129;80;21152;-62
2021/04/10 02:20:50;;;;;;;31.85;17.77;;;;;;;-1.07;72.39;100263.91;1764237;80;21223;-61
2021/04/10 02:23:19;;;;;;;29.85;16.15;;;;;;;-1.12;72.46;100262.55;1764220;81;21351;-61
2021/04/10 02:25:50;;;;;;;29.23;16.55;;;;;;;-1.14;72.41;100269.73;1763862;80;21640;-61
2021/04/10 02:28:18;;;;;;;32.95;16.07;;;;;;;-1.19;72.57;100266.22;1764221;80;21065;-61
2021/04/10 02:30:47;;;;;;;35.90;17.98;;;;;;;-1.21;73.02;100269.20;1764245;81;21513;-61
2021/04/10 02:33:27;;;;;;;33.42;18.27;;;;;;;-1.20;73.11;100268.36;1764242;81;21160;-61
2021/04/10 02:35:56;;;;;;;34.50;17.98;;;;;;;-1.23;73.14;100267.88;1760592;80;21210;-60
2021/04/10 02:38:26;;;;;;;31.12;19.12;;;;;;;-1.23;73.34;100269.16;1769092;80;21066;-60
2021/04/10 02:41:07;;;;;;;31.17;17.50;;;;;;;-1.26;73.14;100268.23;1774305;80;21053;-60
2021/04/10 02:43:38;;;;;;;37.13;19.05;;;;;;;-1.33;73.36;100273.63;1774275;80;21057;-60
2021/04/10 02:46:07;;;;;;;32.70;20.72;;;;;;;-1.33;73.87;100274.05;1774345;80;21458;-60
2021/04/10 02:48:39;;;;;;;13.70;9.85;;;;;;;-1.30;74.53;100272.84;1774289;80;21461;-60
2021/04/10 02:51:07;;;;;;;27.52;16.00;;;;;;;-1.22;75.10;100273.85;1774262;80;21086;-61
2021/04/10 02:53:36;;;;;;;29.87;15.88;;;;;;;-1.14;75.09;100270.59;1774268;80;21077;-61
2021/04/10 02:56:04;;;;;;;29.00;16.57;;;;;;;-1.12;74.84;100269.34;1745920;80;21140;-61
2021/04/10 02:58:31;;;;;;;24.25;16.17;;;;;;;-1.10;74.63;100264.72;1774381;80;21477;-61
2021/04/10 03:00:59;;;;;;;27.75;15.68;;;;;;;-1.08;74.41;100268.16;1774341;80;21194;-61
2021/04/10 03:03:29;;;;;;;26.07;16.02;;;;;;;-1.09;73.97;100262.61;1774400;80;21053;-61
2021/04/10 03:05:57;;;;;;;25.52;15.70;;;;;;;-1.11;73.75;100265.96;1774456;80;21049;-61
2021/04/10 03:08:26;;;;;;;24.02;14.63;;;;;;;-1.15;73.31;100267.59;1774412;80;21070;-62
2021/04/10 03:10:56;;;;;;;27.73;14.73;;;;;;;-1.21;73.35;100262.40;1774527;80;21478;-62
2021/04/10 03:13:23;;;;;;;21.73;13.70;;;;;;;-1.23;73.50;100270.44;1746541;80;22301;-62
2021/04/10 03:15:55;;;;;;;26.50;13.75;;;;;;;-1.26;73.54;100267.83;1773596;80;21089;-62
2021/04/10 03:18:24;;;;;;;21.87;14.20;;;;;;;-1.24;73.70;100267.86;1774438;80;21081;-60
2021/04/10 03:20:53;;;;;;;25.20;13.58;;;;;;;-1.25;73.54;100266.99;1774193;80;21612;-61
2021/04/10 03:23:23;;;;;;;24.55;14.03;;;;;;;-1.28;73.48;100268.63;1747034;80;21101;-60
2021/04/10 03:25:52;;;;;;;22.85;13.80;;;;;;;-1.31;73.47;100275.80;1774435;80;21277;-60
2021/04/10 03:28:20;;;;;;;20.43;13.08;;;;;;;-1.36;73.33;100276.53;1774363;80;21125;-62
2021/04/10 03:30:49;;;;;;;23.65;14.07;;;;;;;-1.43;73.25;100289.20;1774428;80;21104;-61
2021/04/10 03:33:19;;;;;;;23.25;13.83;;;;;;;-1.49;73.65;100275.45;1774147;80;21082;-61
2021/04/10 03:35:46;;;;;;;19.77;12.95;;;;;;;-1.39;74.26;100280.74;1774391;80;21637;-61
2021/04/10 03:38:15;;;;;;;25.00;13.22;;;;;;;-1.19;74.16;100281.54;1774289;80;21197;-61
2021/04/10 03:40:42;;;;;;;24.35;13.08;;;;;;;-0.98;74.12;100280.66;1774354;80;21145;-61
2021/04/10 03:43:11;;;;;;;22.80;13.08;;;;;;;-0.72;73.98;100279.42;1774411;80;21113;-61
2021/04/10 03:45:42;;;;;;;23.87;12.50;;;;;;;-0.44;73.43;100272.21;1774104;80;21566;-61
2021/04/10 03:48:12;;;;;;;16.45;12.33;;;;;;;-0.16;72.74;100277.30;1774129;80;21157;-61
2021/04/10 03:50:42;;;;;;;20.00;12.63;;;;;;;0.11;71.88;100275.55;1773462;80;21208;-61
2021/04/10 03:53:10;;;;;;;23.83;13.30;;;;;;;0.42;71.27;100276.80;1746293;80;21628;-61
2021/04/10 03:55:39;;;;;;;31.93;14.68;;;;;;;0.76;70.67;100285.75;1774395;80;21062;-61
2021/04/10 03:58:07;;;;;;;21.17;13.70;;;;;;;1.11;69.95;100272.88;1774386;80;21061;-61
2021/04/10 04:00:35;;;;;;;26.40;13.75;;;;;;;1.47;69.06;100282.58;1774404;80;21089;-61
2021/04/10 04:03:03;;;;;;;27.50;14.93;;;;;;;1.76;68.19;100281.53;1774399;80;22208;-61
2021/04/10 04:05:31;;;;;;;23.67;15.23;;;;;;;2.05;67.26;100283.84;1774400;80;21581;-61
2021/04/10 04:07:58;;;;;;;25.85;16.25;;;;;;;2.30;66.71;100287.83;1774403;80;21069;-61
2021/04/10 04:10:26;;;;;;;27.10;17.98;;;;;;;2.39;66.04;100287.89;1774375;80;21066;-60
2021/04/10 04:12:54;;;;;;;30.00;14.98;;;;;;;2.36;65.99;100282.73;1774342;80;21110;-61
2021/04/10 04:15:21;;;;;;;25.30;14.33;;;;;;;2.32;65.73;100284.42;1774361;80;21366;-61
2021/04/10 04:17:50;;;;;;;26.97;17.12;;;;;;;2.35;65.63;100290.00;1774385;80;21077;-61
2021/04/10 04:20:17;;;;;;;30.25;17.57;;;;;;;2.58;65.92;100285.83;1774378;80;21097;-61
2021/04/10 04:22:45;;;;;;;22.42;14.63;;;;;;;2.99;65.55;100278.67;1774360;80;21497;-61
2021/04/10 04:25:13;;;;;;;36.80;15.48;;;;;;;3.48;64.30;100280.84;1774492;80;21141;-61
2021/04/10 04:27:41;;;;;;;35.33;16.27;;;;;;;3.90;63.34;100285.53;1774304;80;21376;-61
2021/04/10 04:30:12;;;;;;;23.60;14.98;;;;;;;4.34;62.25;100282.86;1774340;80;21097;-61
2021/04/10 04:32:39;;;;;;;25.25;15.30;;;;;;;4.76;60.90;100286.98;1774401;80;21144;-61
2021/04/10 04:35:08;;;;;;;28.40;17.92;;;;;;;5.13;59.78;100285.05;1774282;80;21054;-62
2021/04/10 04:37:36;;;;;;;38.65;18.73;;;;;;;5.43;58.23;100287.83;1774334;80;21054;-61
2021/04/10 04:40:08;;;;;;;20.97;15.43;;;;;;;5.59;58.09;100284.29;1779314;79;21364;-62
2021/04/10 04:42:35;;;;;;;26.17;18.00;;;;;;;5.88;57.06;100284.91;1779816;80;21084;-62
2021/04/10 04:45:05;;;;;;;29.27;18.75;;;;;;;6.18;55.81;100283.75;1779915;80;21109;-62
2021/04/10 04:47:33;;;;;;;36.85;20.30;;;;;;;6.37;55.31;100286.12;1779835;80;21149;-62
2021/04/10 04:50:01;;;;;;;31.73;17.15;;;;;;;6.68;54.81;100287.46;1779867;80;21109;-62
2021/04/10 04:52:30;;;;;;;39.75;18.45;;;;;;;7.01;53.93;100286.14;1779821;80;21343;-62
2021/04/10 04:54:58;;;;;;;35.33;17.23;;;;;;;7.30;53.01;100292.20;1779751;80;21077;-61
2021/04/10 04:57:26;;;;;;;32.58;17.85;;;;;;;7.51;51.99;100284.55;1779766;80;21068;-61
2021/04/10 04:59:53;;;;;;;29.80;18.27;;;;;;;7.52;51.55;100282.38;1779815;80;21128;-61
2021/04/10 05:02:21;;;;;;;30.23;18.15;;;;;;;7.50;51.79;100277.66;1779837;80;21153;-62
2021/04/10 05:04:49;;;;;;;38.48;18.07;;;;;;;7.56;51.40;100277.57;1779828;80;21273;-61
2021/04/10 05:07:16;;;;;;;30.20;17.60;;;;;;;7.55;51.13;100278.02;1779730;80;21070;-61
2021/04/10 05:09:43;;;;;;;23.85;16.60;;;;;;;7.48;51.63;100275.09;1779903;80;21066;-61
2021/04/10 05:12:12;;;;;;;26.65;17.12;;;;;;;7.47;51.22;100277.70;1779799;80;21124;-61
2021/04/10 05:14:39;;;;;;;25.17;16.77;;;;;;;7.38;51.49;100276.57;1779826;80;21058;-61
2021/04/10 05:17:07;;;;;;;34.73;17.92;;;;;;;7.36;51.88;100275.73;1779766;80;21308;-61
2021/04/10 05:19:35;;;;;;;28.67;17.32;;;;;;;7.43;51.89;100272.16;1779761;80;21073;-62
2021/04/10 05:22:03;;;;;;;52.45;32.58;;;;;;;7.49;51.60;100277.24;1779844;79;21564;-61
2021/04/10 05:24:30;;;;;;;41.23;30.12;;;;;;;7.47;51.38;100280.30;1779752;80;21133;-61
2021/04/10 05:26:58;;;;;;;53.75;29.50;;;;;;;7.35;51.70;100280.50;1779820;80;21489;-61
2021/04/10 05:29:26;;;;;;;35.33;22.30;;;;;;;7.37;52.37;100277.45;1779770;79;21198;-61
2021/04/10 05:31:54;;;;;;;24.25;16.32;;;;;;;7.51;52.30;100278.93;1779734;80;21160;-61
2021/04/10 05:34:22;;;;;;;32.10;16.60;;;;;;;7.69;52.21;100275.63;1779698;80;21120;-62
2021/04/10 05:36:49;;;;;;;16.65;11.25;;;;;;;7.91;51.66;100279.55;1779736;80;21084;-62
2021/04/10 05:39:16;;;;;;;26.57;12.53;;;;;;;7.99;50.98;100276.40;1773815;80;21462;-62
2021/04/10 05:41:44;;;;;;;55.73;12.30;;;;;;;8.05;50.89;100272.38;1766649;80;21203;-60
2021/04/10 05:44:12;;;;;;;30.05;14.35;;;;;;;8.13;50.38;100270.95;1766617;80;21576;-61
2021/04/10 05:46:39;;;;;;;27.15;13.38;;;;;;;8.12;50.18;100268.80;1766647;81;21073;-61
2021/04/10 05:49:07;;;;;;;16.45;10.50;;;;;;;8.10;49.59;100268.41;1766661;79;21583;-61
2021/04/10 05:51:35;;;;;;;31.87;10.43;;;;;;;8.05;49.52;100267.20;1766661;80;21054;-60
2021/04/10 05:54:02;;;;;;;15.60;9.40;;;;;;;8.04;49.39;100273.70;1766633;80;22102;-61
2021/04/10 05:56:30;;;;;;;23.95;10.88;;;;;;;8.00;49.30;100270.74;1766524;79;21160;-61
2021/04/10 05:58:57;;;;;;;24.35;10.85;;;;;;;7.91;49.41;100271.34;1766587;79;21081;-62
2021/04/10 06:01:28;;;;;;;22.35;12.07;;;;;;;7.85;49.43;100274.03;1766567;81;21057;-62
2021/04/10 06:03:57;;;;;;;21.10;9.83;;;;;;;7.79;49.60;100279.78;1766713;81;21037;-62
2021/04/10 06:06:24;;;;;;;15.43;8.68;;;;;;;7.73;49.57;100285.91;1766644;81;21276;-62
2021/04/10 06:08:52;;;;;;;23.57;9.60;;;;;;;7.66;49.75;100280.41;1766554;81;21108;-62
2021/04/10 06:11:19;;;;;;;20.88;12.95;;;;;;;7.64;49.94;100278.72;1766616;81;21049;-62
2021/04/10 06:13:47;;;;;;;15.03;9.15;;;;;;;7.64;50.49;100276.12;1766589;79;21077;-62
2021/04/10 06:16:15;;;;;;;17.90;9.85;;;;;;;7.67;50.73;100274.35;1766602;80;21117;-62
2021/04/10 06:18:44;;;;;;;19.23;8.88;;;;;;;7.70;51.10;100274.30;1766634;80;21136;-62
2021/04/10 06:21:11;;;;;;;21.17;9.65;;;;;;;7.80;51.31;100271.09;1766570;80;21125;-62
2021/04/10 06:23:39;;;;;;;13.58;9.25;;;;;;;7.85;50.46;100273.17;1766621;81;21481;-61
2021/04/10 06:26:06;;;;;;;16.55;9.48;;;;;;;7.89;50.24;100270.52;1766594;81;21061;-61
2021/04/10 06:28:34;;;;;;;14.60;8.53;;;;;;;7.95;50.02;100278.63;1766567;80;21137;-61
2021/04/10 06:31:02;;;;;;;14.38;7.83;;;;;;;8.00;49.61;100266.41;1766702;81;22239;-62
2021/04/10 06:33:30;;;;;;;12.63;7.65;;;;;;;8.06;49.40;100266.31;1766650;80;21065;-62
2021/04/10 06:35:58;;;;;;;12.80;7.47;;;;;;;8.16;48.99;100264.42;1766562;81;21069;-62
2021/04/10 06:38:25;;;;;;;21.52;8.20;;;;;;;8.26;48.89;100260.31;1766518;81;21080;-61
2021/04/10 06:40:55;;;;;;;18.73;7.28;;;;;;;8.39;48.64;100267.90;1766559;80;21132;-61
2021/04/10 06:43:25;;;;;;;23.38;8.20;;;;;;;8.48;48.24;100262.52;1766560;81;21084;-61
2021/04/10 06:45:53;;;;;;;13.18;7.30;;;;;;;8.56;48.13;100267.97;1766569;81;21128;-62
2021/04/10 06:48:21;;;;;;;11.12;6.47;;;;;;;8.64;47.67;100264.75;1751732;80;21144;-62
2021/04/10 06:50:48;;;;;;;13.60;6.53;;;;;;;8.74;47.75;100264.58;1766683;81;21069;-62
2021/04/10 06:53:17;;;;;;;16.55;7.20;;;;;;;8.84;47.45;100256.55;1766601;80;21469;-62
2021/04/10 06:55:51;;;;;;;19.10;7.17;;;;;;;8.94;46.86;100265.85;1766593;80;21401;-63
2021/04/10 06:58:39;;;;;;;11.55;6.42;;;;;;;9.05;47.12;100264.30;1766522;81;21096;-62
2021/04/10 07:01:06;;;;;;;11.80;6.50;;;;;;;9.18;46.78;100257.95;1766344;80;21168;-62
2021/04/10 07:03:34;;;;;;;8.98;5.70;;;;;;;9.30;46.17;100263.30;1766561;80;21156;-63
2021/04/10 07:06:02;;;;;;;19.65;6.95;;;;;;;9.40;45.45;100256.98;1766558;80;21108;-63
2021/04/10 07:08:29;;;;;;;11.50;6.37;;;;;;;9.48;45.07;100261.55;1766575;80;21263;-62
2021/04/10 07:10:57;;;;;;;18.65;6.70;;;;;;;9.58;44.80;100264.80;1766556;81;21084;-63
2021/04/10 07:13:27;;;;;;;7.47;5.47;;;;;;;9.66;44.08;100270.63;1766563;81;21497;-62
2021/04/10 07:16:07;;;;;;;19.25;5.25;;;;;;;9.76;43.58;100270.83;1766595;80;21493;-62
2021/04/10 07:18:35;;;;;;;16.60;5.55;;;;;;;9.88;42.88;100267.90;1766530;81;21506;-62
2021/04/10 07:21:24;;;;;;;13.22;4.90;;;;;;;9.98;42.55;100269.83;1766557;81;21185;-63
2021/04/10 07:23:54;;;;;;;13.10;5.50;;;;;;;10.09;42.62;100269.08;1766541;80;21100;-62
2021/04/10 07:26:43;;;;;;;11.83;5.55;;;;;;;10.24;41.99;100263.94;1766576;81;21123;-63
2021/04/10 07:29:50;;;;;;;16.35;5.17;;;;;;;10.35;40.75;100262.77;1759461;80;21089;-62
2021/04/10 07:32:37;;;;;;;9.73;4.50;;;;;;;10.44;39.72;100259.48;1766599;81;21073;-63
2021/04/10 07:35:12;;;;;;;6.05;4.28;;;;;;;10.52;39.72;100262.28;1766535;80;21093;-62
2021/04/10 07:37:46;;;;;;;26.62;5.97;;;;;;;10.62;39.82;100255.05;1766659;81;21073;-63
2021/04/10 07:40:20;;;;;;;10.05;4.42;;;;;;;10.69;39.52;100253.53;1766303;80;21128;-63
2021/04/10 07:42:47;;;;;;;16.15;4.85;;;;;;;10.77;38.60;100258.97;1766668;80;21053;-63
2021/04/10 07:45:32;;;;;;;12.60;4.80;;;;;;;10.83;37.67;100254.42;1766578;81;21109;-63
2021/04/10 07:48:05;;;;;;;8.93;4.75;;;;;;;10.87;37.20;100253.44;1766636;81;21357;-63
2021/04/10 07:50:35;;;;;;;8.80;4.67;;;;;;;10.90;36.66;100258.55;1766795;81;21568;-63
2021/04/10 07:53:26;;;;;;;13.85;4.40;;;;;;;10.91;36.20;100253.75;1766814;80;21539;-63
2021/04/10 07:55:57;;;;;;;5.35;3.75;;;;;;;10.97;35.93;100254.02;1766820;79;21072;-63
2021/04/10 07:58:36;;;;;;;9.68;4.10;;;;;;;11.07;36.08;100253.27;1766884;81;21663;-62
2021/04/10 08:01:09;;;;;;;8.63;3.80;;;;;;;11.17;36.06;100249.50;1766799;80;22043;-63
2021/04/10 08:03:40;;;;;;;9.65;4.95;;;;;;;11.24;35.75;100250.98;1766688;80;21064;-63
2021/04/10 08:06:13;;;;;;;6.90;4.90;;;;;;;11.30;34.40;100257.31;1766760;81;21584;-65
2021/04/10 08:08:50;;;;;;;9.43;5.22;;;;;;;11.32;35.01;100253.77;1766687;80;21258;-63
2021/04/10 08:11:38;;;;;;;12.53;5.00;;;;;;;11.39;34.26;100250.49;1766757;79;21072;-63
2021/04/10 08:14:11;;;;;;;7.33;4.55;;;;;;;11.44;34.37;100247.30;1766686;81;23444;-62
2021/04/10 08:16:48;;;;;;;14.03;4.55;;;;;;;11.48;34.29;100253.27;1766687;80;21204;-62
2021/04/10 08:19:17;;;;;;;6.00;3.95;;;;;;;11.49;33.42;100257.13;1766750;80;21120;-62
2021/04/10 08:21:49;;;;;;;17.80;4.87;;;;;;;11.51;33.14;100256.63;1751821;81;21088;-62
2021/04/10 08:24:28;;;;;;;23.90;6.42;;;;;;;11.55;33.30;100249.12;1766871;80;21092;-62
2021/04/10 08:27:04;;;;;;;8.25;3.85;;;;;;;11.62;33.02;100251.05;1766816;80;21198;-63
2021/04/10 08:29:34;;;;;;;6.87;3.95;;;;;;;11.66;33.09;100252.20;1766678;81;21164;-62
2021/04/10 08:32:02;;;;;;;4.97;3.60;;;;;;;11.70;32.92;100246.44;1766861;81;21140;-63
2021/04/10 08:34:31;;;;;;;7.67;4.10;;;;;;;11.71;32.29;100250.30;1766767;81;21219;-63
2021/04/10 08:37:02;;;;;;;6.28;3.50;;;;;;;11.72;32.87;100253.76;1766804;80;21080;-63
2021/04/10 08:39:46;;;;;;;20.17;4.87;;;;;;;11.77;31.90;100252.34;1767485;80;21374;-63
2021/04/10 08:42:17;;;;;;;13.08;5.00;;;;;;;11.77;31.79;100254.50;1774333;80;21090;-63
2021/04/10 08:44:46;;;;;;;12.23;4.20;;;;;;;11.81;31.01;100250.86;1774355;80;21546;-62
2021/04/10 08:47:14;;;;;;;7.70;3.80;;;;;;;11.82;31.60;100243.44;1774308;80;21125;-62
2021/04/10 08:49:48;;;;;;;8.63;4.00;;;;;;;11.87;31.93;100240.23;1774393;80;21606;-63
2021/04/10 08:52:21;;;;;;;8.18;3.83;;;;;;;11.92;32.00;100237.47;1774281;80;21370;-61
2021/04/10 08:54:50;;;;;;;6.72;3.50;;;;;;;12.00;31.94;100236.28;1774375;80;21498;-62
2021/04/10 08:57:17;;;;;;;16.55;4.35;;;;;;;12.08;31.05;100230.81;1774270;80;21093;-62
2021/04/10 08:59:47;;;;;;;7.03;3.37;;;;;;;12.12;31.12;100236.77;1774360;80;21533;-62
2021/04/10 09:02:18;;;;;;;13.93;7.33;;;;;;;12.09;30.40;100236.42;1774337;80;21486;-63
2021/04/10 09:05:02;;;;;;;5.87;3.42;;;;;;;12.12;30.72;100235.02;1774393;80;22273;-63
2021/04/10 09:07:49;;;;;;;;;;;;;;;12.20;30.32;100229.05;1776910;80;21066;-63
2021/04/10 09:10:31;;;;;;;9.85;3.85;;;;;;;12.23;30.50;100231.56;1774338;80;20222;-63
2021/04/10 09:13:19;;;;;;;6.93;3.90;;;;;;;12.24;31.02;100225.44;1774615;80;21521;-61
2021/04/10 09:15:46;;;;;;;7.60;3.52;;;;;;;12.30;30.27;100228.28;1774345;80;21296;-62
2021/04/10 09:18:15;;;;;;;5.60;3.40;;;;;;;12.31;30.59;100237.36;1774329;80;21085;-63
2021/04/10 09:20:50;;;;;;;7.83;3.95;;;;;;;12.35;30.93;100226.37;1774228;80;21172;-63
2021/04/10 09:23:33;;;;;;;12.15;3.02;;;;;;;12.42;30.58;100222.61;1774264;80;21184;-64
2021/04/10 09:26:13;;;;;;;10.93;2.80;;;;;;;12.48;29.76;100218.92;1774291;80;21188;-63
2021/04/10 09:29:15;;;;;;;6.95;3.62;;;;;;;12.50;30.22;100219.27;1774336;80;21136;-62
2021/04/10 09:31:49;;;;;;;5.75;3.47;;;;;;;12.51;29.94;100219.67;1774419;80;21160;-62
2021/04/10 09:34:50;;;;;;;14.87;3.70;;;;;;;12.52;30.45;100220.52;1774290;80;21093;-62
2021/04/10 09:37:26;;;;;;;8.90;4.75;;;;;;;12.53;30.17;100217.00;1774286;80;21455;-62
2021/04/10 09:40:02;;;;;;;7.65;5.08;;;;;;;12.52;30.38;100215.30;1774147;80;21205;-63
2021/04/10 09:45:30;;;;;;;8.95;4.28;;;;;;;12.52;30.02;100213.55;1774354;80;21384;-63
2021/04/10 09:48:10;;;;;;;8.70;3.52;;;;;;;12.51;29.94;100207.92;1774274;80;21069;-62
2021/04/10 09:50:39;;;;;;;9.43;4.05;;;;;;;12.51;29.86;100213.14;1774259;80;21513;-62
2021/04/10 09:53:17;;;;;;;12.50;3.33;;;;;;;12.51;29.79;100207.92;1774309;80;21094;-62
2021/04/10 09:55:48;;;;;;;6.22;3.27;;;;;;;12.58;30.12;100206.80;1774289;80;21042;-62
2021/04/10 09:58:18;;;;;;;6.65;4.00;;;;;;;12.67;29.51;100195.99;1774321;80;22234;-62
2021/04/10 10:00:54;;;;;;;7.58;3.50;;;;;;;12.73;30.08;100196.22;1774236;80;21093;-63
2021/04/10 10:03:23;;;;;;;8.40;3.20;;;;;;;12.80;30.56;100202.87;1774300;80;21093;-62
2021/04/10 10:05:53;;;;;;;10.95;3.60;;;;;;;12.84;29.70;100201.86;1771642;80;21169;-62
2021/04/10 10:08:28;;;;;;;4.45;3.47;;;;;;;12.86;29.11;100198.73;1774303;80;21141;-62
2021/04/10 10:11:03;;;;;;;6.58;3.40;;;;;;;12.85;28.89;100198.80;1774214;80;21302;-62
2021/04/10 10:13:35;;;;;;;13.53;3.50;;;;;;;12.81;29.18;100198.06;1774184;80;21117;-63
2021/04/10 10:16:06;;;;;;;10.40;4.53;;;;;;;12.80;30.22;100197.66;1774379;80;21097;-62
2021/04/10 10:18:42;;;;;;;13.60;3.47;;;;;;;12.84;29.93;100197.09;1774458;80;21487;-62
2021/04/10 10:21:17;;;;;;;15.72;3.60;;;;;;;12.89;29.08;100198.62;1774299;80;21168;-63
2021/04/10 10:23:57;;;;;;;4.10;2.70;;;;;;;12.94;29.24;100191.47;1774248;80;21065;-63
2021/04/10 10:26:39;;;;;;;11.48;3.40;;;;;;;12.97;28.75;100189.19;1774198;80;21088;-63
2021/04/10 10:29:10;;;;;;;4.92;3.27;;;;;;;13.00;29.14;100192.50;1774225;80;21088;-62
2021/04/10 10:31:52;;;;;;;8.05;3.65;;;;;;;13.05;28.97;100181.88;1773979;80;38099;-62
2021/04/10 10:34:23;;;;;;;7.03;3.35;;;;;;;13.02;28.26;100180.23;1774300;80;21481;-62
2021/04/10 10:36:53;;;;;;;7.03;2.92;;;;;;;12.97;28.90;100182.21;1774356;80;21137;-63
2021/04/10 10:39:35;;;;;;;7.97;3.60;;;;;;;12.98;28.69;100175.23;1774107;80;21148;-63
2021/04/10 10:42:05;;;;;;;14.10;3.60;;;;;;;13.01;28.75;100168.09;1767320;79;21117;-63
2021/04/10 10:44:36;;;;;;;12.18;4.15;;;;;;;13.05;28.48;100173.59;1766611;81;21105;-63
2021/04/10 10:47:06;;;;;;;5.28;3.00;;;;;;;13.10;28.72;100174.27;1766658;80;21104;-63
2021/04/10 10:49:34;;;;;;;7.30;3.40;;;;;;;13.15;28.55;100165.40;1766671;80;22278;-63
2021/04/10 10:52:02;;;;;;;15.45;7.05;;;;;;;13.17;29.03;100172.75;1766657;81;21132;-63
2021/04/10 10:54:37;;;;;;;6.33;3.77;;;;;;;13.20;28.69;100163.45;1766609;81;21061;-63
2021/04/10 10:57:17;;;;;;;8.25;3.60;;;;;;;13.20;28.47;100166.92;1766574;81;21568;-64
2021/04/10 10:59:47;;;;;;;16.45;3.83;;;;;;;13.23;28.62;100165.95;1764991;80;21089;-62
2021/04/10 11:02:19;;;;;;;18.12;4.90;;;;;;;13.23;28.79;100156.80;1766582;80;21129;-63
2021/04/10 11:04:47;;;;;;;5.35;2.98;;;;;;;13.22;29.56;100149.88;1766657;81;21089;-62
2021/04/10 11:07:15;;;;;;;7.20;3.27;;;;;;;13.27;29.25;100149.23;1766606;81;21069;-62
2021/04/10 11:09:43;;;;;;;12.80;3.20;;;;;;;13.32;29.35;100157.28;1727135;81;21144;-63
2021/04/10 11:12:15;;;;;;;11.08;3.80;;;;;;;13.37;28.75;100146.20;1766632;81;21144;-62
2021/04/10 11:14:46;;;;;;;8.98;3.37;;;;;;;13.39;28.34;100137.80;1766560;81;21152;-66
2021/04/10 11:17:30;;;;;;;6.97;3.60;;;;;;;13.46;28.71;100141.02;1766515;81;21117;-63
2021/04/10 11:19:59;;;;;;;8.55;4.97;;;;;;;13.52;28.27;100134.23;1766624;81;21077;-63
2021/04/10 11:22:27;;;;;;;8.25;3.50;;;;;;;13.55;28.35;100130.19;1752059;81;21569;-63
2021/04/10 11:25:00;;;;;;;5.62;3.15;;;;;;;13.62;28.15;100130.75;1766764;81;21048;-62
2021/04/10 11:27:34;;;;;;;7.08;3.65;;;;;;;13.67;27.89;100124.87;1767096;81;21368;-62
2021/04/10 11:30:12;;;;;;;5.67;3.05;;;;;;;13.69;28.26;100137.42;1766723;81;21206;-62
2021/04/10 11:32:43;;;;;;;7.10;3.22;;;;;;;13.65;27.04;100120.16;1766691;81;21639;-63
2021/04/10 11:35:17;;;;;;;21.12;3.40;;;;;;;13.58;27.54;100119.60;1766734;80;21180;-63
2021/04/10 11:37:51;;;;;;;12.63;4.10;;;;;;;13.56;27.65;100118.81;1766774;79;21108;-63
2021/04/10 11:40:33;;;;;;;7.83;4.08;;;;;;;13.57;28.07;100116.59;1766396;80;21360;-64
2021/04/10 11:43:06;;;;;;;;;;;;;;;13.61;28.23;100110.75;1776937;80;21604;-63